Aviation Digital Data Service (ADDS)

Output produced by METARs form (0638 UTC 29 July 2014)
found at http://www.aviationweather.gov/adds/metars/
 
KPIA 290527Z 2906/3006 VRB03KT P6SM SKC 
     FM291500 30010KT P6SM SCT040 
     FM300000 26005KT P6SM SKC